Time,TemperatureF,DewpointF,PressureIn,WindDirection,WindDirectionDegrees,WindSpeedMPH,WindSpeedGustMPH,Humidity,HourlyPrecipIn,Conditions,Clouds,dailyrainin,SoftwareType,DateUTC
2013-05-11 00:04:00,53.1,47.4,29.26,NNW,344,6.0,6.0,81,0.00,RA,,0.00,WeatherDisplay:10.37,2013-05-11 05:04:00,
2013-05-11 00:09:00,52.9,47.2,29.26,NNW,347,6.0,6.0,81,0.00,RA,,0.00,WeatherDisplay:10.37,2013-05-11 05:09:00,
2013-05-11 00:14:00,52.9,47.2,29.26,North,350,6.0,6.0,81,0.00,OVC,,0.00,WeatherDisplay:10.37,2013-05-11 05:14:00,
2013-05-11 00:19:00,52.9,47.2,29.26,North,350,6.0,6.0,81,0.00,OVC,,0.00,WeatherDisplay:10.37,2013-05-11 05:19:00,
2013-05-11 00:24:00,52.9,47.2,29.26,North,350,6.0,6.0,81,0.00,OVC,,0.00,WeatherDisplay:10.37,2013-05-11 05:24:00,
2013-05-11 00:29:00,53.1,47.4,29.26,North,350,5.0,5.0,81,0.00,OVC,,0.00,WeatherDisplay:10.37,2013-05-11 05:29:00,
2013-05-11 00:34:00,53.1,47.4,29.26,North,354,5.0,5.0,81,0.00,OVC,,0.00,WeatherDisplay:10.37,2013-05-11 05:34:00,
2013-05-11 00:39:00,53.1,47.4,29.26,North,349,5.0,5.0,81,0.00,OVC,,0.00,WeatherDisplay:10.37,2013-05-11 05:39:00,
2013-05-11 00:44:00,53.1,47.1,29.26,NNW,344,5.0,5.0,80,0.00,OVC,,0.00,WeatherDisplay:10.37,2013-05-11 05:44:00,
2013-05-11 00:49:00,53.1,47.1,29.26,NNW,339,5.0,5.0,80,0.00,OVC,,0.00,WeatherDisplay:10.37,2013-05-11 05:49:00,
2013-05-11 00:54:00,53.1,47.1,29.26,NNW,334,5.0,5.0,80,0.00,OVC,,0.00,WeatherDisplay:10.37,2013-05-11 05:54:00,
2013-05-11 00:59:00,53.1,47.1,29.26,NNW,336,5.0,5.0,80,0.00,OVC,,0.00,WeatherDisplay:10.37,2013-05-11 05:59:00,
2013-05-11 01:04:00,53.2,47.2,29.26,NNW,348,3.0,5.0,80,0.00,OVC,,0.00,WeatherDisplay:10.37,2013-05-11 06:04:00,
2013-05-11 01:09:00,53.2,47.2,29.29,NNW,343,3.0,4.0,80,0.00,OVC,,0.00,WeatherDisplay:10.37,2013-05-11 06:09:00,
2013-05-11 01:14:00,53.2,47.2,29.29,NNW,330,3.0,3.0,80,0.00,OVC,,0.00,WeatherDisplay:10.37,2013-05-11 06:14:00,
2013-05-11 01:19:00,53.2,47.2,29.26,NNW,330,3.0,3.0,80,0.00,OVC,,0.00,WeatherDisplay:10.37,2013-05-11 06:19:00,
2013-05-11 01:24:00,53.2,47.2,29.26,NNW,330,3.0,3.0,80,0.00,OVC,,0.00,WeatherDisplay:10.37,2013-05-11 06:24:00,
2013-05-11 01:29:00,53.2,47.2,29.26,NW,309,3.0,3.0,80,0.00,OVC,,0.00,WeatherDisplay:10.37,2013-05-11 06:29:00,
2013-05-11 01:34:00,53.2,47.2,29.29,West,278,3.0,3.0,80,0.00,OVC,,0.00,WeatherDisplay:10.37,2013-05-11 06:34:00,
2013-05-11 01:39:00,53.2,47.2,29.26,WNW,284,2.0,3.0,80,0.00,OVC,,0.00,WeatherDisplay:10.37,2013-05-11 06:39:00,
2013-05-11 01:44:00,53.2,47.2,29.26,WNW,290,2.0,3.0,80,0.00,OVC,,0.00,WeatherDisplay:10.37,2013-05-11 06:44:00,
2013-05-11 01:49:00,53.2,47.2,29.26,NW,313,2.0,3.0,80,0.00,OVC,,0.00,WeatherDisplay:10.37,2013-05-11 06:49:00,
2013-05-11 01:54:00,53.2,47.2,29.26,NW,324,2.0,2.0,80,0.00,OVC,,0.00,WeatherDisplay:10.37,2013-05-11 06:54:00,
2013-05-11 01:59:00,53.2,47.2,29.26,NW,318,2.0,2.0,80,0.00,OVC,,0.00,WeatherDisplay:10.37,2013-05-11 06:59:00,
2013-05-11 02:04:00,53.2,47.2,29.26,NW,326,2.0,2.0,80,0.00,OVC,,0.00,WeatherDisplay:10.37,2013-05-11 07:04:00,
2013-05-11 02:09:00,53.2,47.2,29.26,NNW,331,2.0,2.0,80,0.00,OVC,,0.00,WeatherDisplay:10.37,2013-05-11 07:09:00,
2013-05-11 02:14:00,53.2,47.2,29.26,NNW,337,2.0,2.0,80,0.00,OVC,,0.00,WeatherDisplay:10.37,2013-05-11 07:14:00,
2013-05-11 02:19:00,53.2,47.2,29.26,NNW,335,2.0,3.0,80,0.00,OVC,,0.00,WeatherDisplay:10.37,2013-05-11 07:19:00,
2013-05-11 02:24:00,53.2,47.2,29.26,NNW,330,2.0,3.0,80,0.00,OVC,,0.00,WeatherDisplay:10.37,2013-05-11 07:24:00,
2013-05-11 02:29:00,53.2,47.2,29.26,NW,325,2.0,2.0,80,0.00,OVC,,0.00,WeatherDisplay:10.37,2013-05-11 07:29:00,
2013-05-11 02:34:00,53.2,47.2,29.26,NNW,332,2.0,2.0,80,0.00,OVC,,0.00,WeatherDisplay:10.37,2013-05-11 07:34:00,
2013-05-11 02:39:00,53.2,47.2,29.26,NNW,331,2.0,2.0,80,0.00,OVC,,0.00,WeatherDisplay:10.37,2013-05-11 07:39:00,
2013-05-11 02:44:00,53.2,47.2,29.26,NW,322,2.0,2.0,80,0.00,OVC,,0.00,WeatherDisplay:10.37,2013-05-11 07:44:00,
2013-05-11 02:49:00,53.2,47.2,29.26,NW,326,2.0,2.0,80,0.00,OVC,,0.00,WeatherDisplay:10.37,2013-05-11 07:49:00,
2013-05-11 02:54:00,53.2,47.2,29.26,NNW,339,2.0,2.0,80,0.00,OVC,,0.00,WeatherDisplay:10.37,2013-05-11 07:54:00,
2013-05-11 02:59:00,53.2,47.2,29.26,North,355,2.0,2.0,80,0.00,OVC,,0.00,WeatherDisplay:10.37,2013-05-11 07:59:00,
2013-05-11 03:04:00,53.2,47.2,29.26,North,355,2.0,2.0,80,0.00,OVC,,0.00,WeatherDisplay:10.37,2013-05-11 08:04:00,
2013-05-11 03:09:00,53.2,47.2,29.26,NNW,333,2.0,2.0,80,0.00,OVC,,0.00,WeatherDisplay:10.37,2013-05-11 08:09:00,
2013-05-11 03:14:00,53.2,47.2,29.26,WNW,300,2.0,2.0,80,0.00,OVC,,0.00,WeatherDisplay:10.37,2013-05-11 08:14:00,
2013-05-11 03:19:00,53.2,47.2,29.26,WNW,298,2.0,3.0,80,0.00,OVC,,0.00,WeatherDisplay:10.37,2013-05-11 08:19:00,
2013-05-11 03:24:00,53.2,47.2,29.26,WNW,297,2.0,3.0,80,0.00,OVC,,0.00,WeatherDisplay:10.37,2013-05-11 08:24:00,
2013-05-11 03:29:00,53.2,47.2,29.26,WNW,300,2.0,3.0,80,0.00,OVC,,0.00,WeatherDisplay:10.37,2013-05-11 08:29:00,
2013-05-11 03:34:00,53.2,47.2,29.26,WNW,302,2.0,3.0,80,0.00,OVC,,0.00,WeatherDisplay:10.37,2013-05-11 08:34:00,
2013-05-11 03:39:00,53.2,47.2,29.26,WNW,303,2.0,3.0,80,0.00,OVC,,0.00,WeatherDisplay:10.37,2013-05-11 08:39:00,
2013-05-11 03:44:00,53.2,47.6,29.29,WNW,302,2.0,2.0,81,0.00,OVC,,0.00,WeatherDisplay:10.37,2013-05-11 08:44:00,
2013-05-11 03:49:00,53.2,47.6,29.26,NW,311,2.0,2.0,81,0.00,OVC,,0.00,WeatherDisplay:10.37,2013-05-11 08:49:00,
2013-05-11 03:54:00,53.2,47.6,29.26,NW,315,2.0,3.0,81,0.00,OVC,,0.00,WeatherDisplay:10.37,2013-05-11 08:54:00,
2013-05-11 03:59:00,53.2,47.6,29.26,NW,315,2.0,3.0,81,0.00,OVC,,0.00,WeatherDisplay:10.37,2013-05-11 08:59:00,
2013-05-11 04:04:00,53.2,47.6,29.26,NW,318,2.0,3.0,81,0.00,OVC,,0.00,WeatherDisplay:10.37,2013-05-11 09:04:00,
2013-05-11 04:09:00,53.2,47.6,29.26,NW,320,2.0,3.0,81,0.00,OVC,,0.00,WeatherDisplay:10.37,2013-05-11 09:09:00,
2013-05-11 04:14:00,53.2,47.6,29.26,NW,320,2.0,2.0,81,0.00,OVC,,0.00,WeatherDisplay:10.37,2013-05-11 09:14:00,
2013-05-11 04:19:00,53.2,47.6,29.26,NW,320,1.0,2.0,81,0.00,OVC,,0.00,WeatherDisplay:10.37,2013-05-11 09:19:00,
2013-05-11 04:24:00,53.2,47.6,29.26,NW,320,1.0,2.0,81,0.00,OVC,,0.00,WeatherDisplay:10.37,2013-05-11 09:24:00,
2013-05-11 04:29:00,53.2,47.6,29.26,NW,320,1.0,1.0,81,0.00,OVC,,0.00,WeatherDisplay:10.37,2013-05-11 09:29:00,
2013-05-11 04:34:00,53.2,47.2,29.26,NW,320,1.0,1.0,80,0.00,OVC,,0.00,WeatherDisplay:10.37,2013-05-11 09:34:00,
2013-05-11 04:39:00,53.2,47.2,29.26,NW,320,1.0,1.0,80,0.00,OVC,,0.00,WeatherDisplay:10.37,2013-05-11 09:39:00,
2013-05-11 04:44:00,53.2,47.2,29.26,NW,320,1.0,1.0,80,0.00,OVC,,0.00,WeatherDisplay:10.37,2013-05-11 09:44:00,
2013-05-11 04:49:00,53.2,47.2,29.26,NW,320,1.0,1.0,80,0.00,OVC,,0.00,WeatherDisplay:10.37,2013-05-11 09:49:00,
2013-05-11 04:54:00,53.2,47.2,29.26,NW,320,0.0,1.0,80,0.00,OVC,,0.00,WeatherDisplay:10.37,2013-05-11 09:54:00,
2013-05-11 04:59:00,53.2,47.2,29.26,NW,324,1.0,1.0,80,0.00,OVC,,0.00,WeatherDisplay:10.37,2013-05-11 09:59:00,
2013-05-11 05:04:00,52.7,46.7,29.26,NNW,329,1.0,1.0,80,0.00,OVC,,0.00,WeatherDisplay:10.37,2013-05-11 10:04:00,
2013-05-11 05:09:00,52.7,46.7,29.26,NNW,330,1.0,1.0,80,0.00,OVC,,0.00,WeatherDisplay:10.37,2013-05-11 10:09:00,
2013-05-11 05:14:00,52.7,46.7,29.24,NNW,330,1.0,1.0,80,0.00,OVC,,0.00,WeatherDisplay:10.37,2013-05-11 10:14:00,
2013-05-11 05:19:00,52.7,46.7,29.26,NNW,330,1.0,1.0,80,0.00,OVC,,0.00,WeatherDisplay:10.37,2013-05-11 10:19:00,
2013-05-11 05:24:00,52.7,46.7,29.26,NNW,330,1.0,1.0,80,0.00,OVC,,0.00,WeatherDisplay:10.37,2013-05-11 10:24:00,
2013-05-11 05:29:00,52.7,46.7,29.26,NNW,330,1.0,1.0,80,0.00,OVC,,0.00,WeatherDisplay:10.37,2013-05-11 10:29:00,
2013-05-11 05:34:00,52.7,46.7,29.26,NNW,330,1.0,1.0,80,0.00,OVC,,0.00,WeatherDisplay:10.37,2013-05-11 10:34:00,
2013-05-11 05:39:00,52.7,46.7,29.26,NNW,330,1.0,1.0,80,0.00,OVC,,0.00,WeatherDisplay:10.37,2013-05-11 10:39:00,
2013-05-11 05:44:00,52.0,46.3,29.26,NNW,328,1.0,1.0,81,0.00,OVC,,0.00,WeatherDisplay:10.37,2013-05-11 10:44:00,
2013-05-11 05:49:00,52.0,46.3,29.26,NW,325,1.0,1.0,81,0.00,BKN,,0.00,WeatherDisplay:10.37,2013-05-11 10:49:00,
2013-05-11 05:54:00,52.0,46.3,29.26,NW,325,1.0,1.0,81,0.00,BKN,,0.00,WeatherDisplay:10.37,2013-05-11 10:54:00,
2013-05-11 05:59:00,52.0,46.3,29.26,NW,325,1.0,1.0,81,0.00,BKN,,0.00,WeatherDisplay:10.37,2013-05-11 10:59:00,
2013-05-11 06:04:00,52.0,46.3,29.26,NW,325,1.0,1.0,81,0.00,BKN,,0.00,WeatherDisplay:10.37,2013-05-11 11:04:00,
2013-05-11 06:09:00,52.0,46.3,29.26,NW,325,1.0,1.0,81,0.00,BKN,,0.00,WeatherDisplay:10.37,2013-05-11 11:09:00,
2013-05-11 06:14:00,52.0,46.3,29.26,NW,325,1.0,1.0,81,0.00,BKN,,0.00,WeatherDisplay:10.37,2013-05-11 11:14:00,
2013-05-11 06:19:00,52.0,46.3,29.26,NW,325,1.0,1.0,81,0.00,BKN,,0.00,WeatherDisplay:10.37,2013-05-11 11:19:00,
2013-05-11 06:24:00,52.0,46.3,29.26,NW,325,1.0,1.0,81,0.00,BKN,,0.00,WeatherDisplay:10.37,2013-05-11 11:24:00,
2013-05-11 06:29:00,52.0,46.3,29.26,NW,325,1.0,1.0,81,0.00,BKN,,0.00,WeatherDisplay:10.37,2013-05-11 11:29:00,
2013-05-11 06:34:00,52.0,46.3,29.26,NW,325,1.0,1.0,81,0.00,OVC,,0.00,WeatherDisplay:10.37,2013-05-11 11:34:00,
2013-05-11 06:39:00,52.7,47.4,29.26,NNW,327,0.0,1.0,82,0.00,OVC,,0.00,WeatherDisplay:10.37,2013-05-11 11:39:00,
2013-05-11 06:44:00,52.7,47.4,29.26,NW,314,1.0,1.0,82,0.00,OVC,,0.00,WeatherDisplay:10.37,2013-05-11 11:44:00,
2013-05-11 06:49:00,53.1,46.0,29.26,WNW,288,1.0,1.0,77,0.00,BKN,,0.00,WeatherDisplay:10.37,2013-05-11 11:49:00,
2013-05-11 06:54:00,53.1,46.0,29.26,WNW,285,1.0,1.0,77,0.00,BKN,,0.00,WeatherDisplay:10.37,2013-05-11 11:54:00,
2013-05-11 06:59:00,53.1,46.0,29.26,WNW,285,1.0,1.0,77,0.00,BKN,,0.00,WeatherDisplay:10.37,2013-05-11 11:59:00,
2013-05-11 07:04:00,53.1,46.0,29.26,WNW,288,1.0,1.0,77,0.00,BKN,,0.00,WeatherDisplay:10.37,2013-05-11 12:04:00,
2013-05-11 07:09:00,53.1,46.0,29.26,WNW,290,1.0,1.0,77,0.00,BKN,,0.00,WeatherDisplay:10.37,2013-05-11 12:09:00,
2013-05-11 07:14:00,53.1,46.0,29.26,WNW,288,1.0,1.0,77,0.00,BKN,,0.00,WeatherDisplay:10.37,2013-05-11 12:14:00,
2013-05-11 07:19:00,53.1,46.0,29.26,WNW,285,0.0,1.0,77,0.00,BKN,,0.00,WeatherDisplay:10.37,2013-05-11 12:19:00,
2013-05-11 07:24:00,53.1,46.0,29.26,WNW,285,0.0,0.0,77,0.00,BKN,,0.00,WeatherDisplay:10.37,2013-05-11 12:24:00,
2013-05-11 07:29:00,53.1,46.0,29.26,West,280,0.0,0.0,77,0.00,BKN,,0.00,WeatherDisplay:10.37,2013-05-11 12:29:00,
2013-05-11 07:34:00,53.1,46.0,29.26,West,265,0.0,0.0,77,0.00,OVC,,0.00,WeatherDisplay:10.37,2013-05-11 12:34:00,
2013-05-11 07:39:00,53.1,46.0,29.26,West,265,0.0,0.0,77,0.00,OVC,,0.00,WeatherDisplay:10.37,2013-05-11 12:39:00,
2013-05-11 07:44:00,53.1,46.0,29.26,West,265,0.0,0.0,77,0.00,OVC,,0.00,WeatherDisplay:10.37,2013-05-11 12:44:00,
2013-05-11 07:49:00,53.1,46.0,29.26,West,265,0.0,0.0,77,0.00,BKN,,0.00,WeatherDisplay:10.37,2013-05-11 12:49:00,
2013-05-11 07:54:00,53.1,46.0,29.26,West,265,0.0,0.0,77,0.00,BKN,,0.00,WeatherDisplay:10.37,2013-05-11 12:54:00,
2013-05-11 07:59:00,53.1,46.0,29.26,West,265,0.0,0.0,77,0.00,BKN,,0.00,WeatherDisplay:10.37,2013-05-11 12:59:00,
2013-05-11 08:04:00,53.1,46.0,29.26,West,265,0.0,0.0,77,0.00,SCT,,0.00,WeatherDisplay:10.37,2013-05-11 13:04:00,
2013-05-11 08:09:00,53.1,46.0,29.26,West,265,0.0,0.0,77,0.00,SCT,,0.00,WeatherDisplay:10.37,2013-05-11 13:09:00,
2013-05-11 08:14:00,53.1,46.0,29.26,West,265,0.0,0.0,77,0.00,SCT,,0.00,WeatherDisplay:10.37,2013-05-11 13:14:00,
2013-05-11 08:19:00,53.1,46.0,29.26,West,265,0.0,0.0,77,0.00,SCT,,0.00,WeatherDisplay:10.37,2013-05-11 13:19:00,
2013-05-11 08:24:00,53.1,46.0,29.26,West,267,0.0,0.0,77,0.00,SCT,,0.00,WeatherDisplay:10.37,2013-05-11 13:24:00,
2013-05-11 08:29:00,53.1,46.0,29.26,West,263,1.0,1.0,77,0.00,SCT,,0.00,WeatherDisplay:10.37,2013-05-11 13:29:00,
2013-05-11 08:35:00,53.1,46.0,29.26,West,260,2.0,2.0,77,0.00,SCT,,0.00,WeatherDisplay:10.37,2013-05-11 13:35:00,
2013-05-11 08:44:00,53.1,46.0,29.26,West,270,3.0,3.0,77,0.00,SCT,,0.00,WeatherDisplay:10.37,2013-05-11 13:44:00,
2013-05-11 08:49:00,53.1,46.0,29.26,West,270,5.0,5.0,77,0.00,SCT,,0.00,WeatherDisplay:10.37,2013-05-11 13:49:00,
2013-05-11 08:54:00,58.1,48.4,29.26,West,274,5.0,5.0,70,0.00,SCT,,0.00,WeatherDisplay:10.37,2013-05-11 13:54:00,
2013-05-11 08:59:00,58.3,48.5,29.26,West,271,5.0,5.0,70,0.00,SCT,,0.00,WeatherDisplay:10.37,2013-05-11 13:59:00,
2013-05-11 09:04:00,58.8,49.4,29.26,West,271,6.0,6.0,71,0.00,CLR,,0.00,WeatherDisplay:10.37,2013-05-11 14:04:00,
2013-05-11 09:09:00,59.0,49.2,29.26,West,274,6.0,6.0,70,0.00,CLR,,0.00,WeatherDisplay:10.37,2013-05-11 14:09:00,
2013-05-11 09:14:00,59.4,49.2,29.26,West,279,7.0,7.0,69,0.00,CLR,,0.00,WeatherDisplay:10.37,2013-05-11 14:14:00,
2013-05-11 09:19:00,59.7,49.1,29.26,West,269,7.0,7.0,68,0.00,CLR,,0.00,WeatherDisplay:10.37,2013-05-11 14:19:00,
2013-05-11 09:24:00,59.7,49.5,29.26,West,269,7.0,7.0,69,0.00,CLR,,0.00,WeatherDisplay:10.37,2013-05-11 14:24:00,
2013-05-11 09:29:00,59.7,49.5,29.26,West,275,7.0,7.0,69,0.00,CLR,,0.00,WeatherDisplay:10.37,2013-05-11 14:29:00,
2013-05-11 09:34:00,59.9,49.7,29.26,West,275,8.0,8.0,69,0.00,SCT,,0.00,WeatherDisplay:10.37,2013-05-11 14:34:00,
2013-05-11 09:39:00,59.9,49.7,29.26,West,275,8.0,8.0,69,0.00,SCT,,0.00,WeatherDisplay:10.37,2013-05-11 14:39:00,
2013-05-11 09:44:00,61.2,50.9,29.26,West,275,8.0,8.0,69,0.00,SCT,,0.00,WeatherDisplay:10.37,2013-05-11 14:44:00,
2013-05-11 09:49:00,61.5,51.3,29.26,West,275,8.0,8.0,69,0.00,SCT,,0.00,WeatherDisplay:10.37,2013-05-11 14:49:00,
2013-05-11 09:54:00,61.7,51.4,29.26,West,275,8.0,8.0,69,0.00,SCT,,0.00,WeatherDisplay:10.37,2013-05-11 14:54:00,
2013-05-11 09:59:00,61.5,50.9,29.26,West,269,8.0,8.0,68,0.00,SCT,,0.00,WeatherDisplay:10.37,2013-05-11 14:59:00,
2013-05-11 10:04:00,61.9,51.2,29.26,West,267,9.0,9.0,68,0.00,SCT,,0.00,WeatherDisplay:10.37,2013-05-11 15:04:00,
2013-05-11 10:09:00,61.9,51.2,29.24,West,266,9.0,9.0,68,0.00,SCT,,0.00,WeatherDisplay:10.37,2013-05-11 15:09:00,
2013-05-11 10:14:00,62.4,51.7,29.24,West,269,8.0,9.0,68,0.00,SCT,,0.00,WeatherDisplay:10.37,2013-05-11 15:14:00,
2013-05-11 10:19:00,62.2,51.9,29.24,West,269,8.0,9.0,69,0.00,SCT,,0.00,WeatherDisplay:10.37,2013-05-11 15:19:00,
2013-05-11 10:29:00,62.4,51.7,29.24,West,260,8.0,8.0,68,0.00,SCT,,0.00,WeatherDisplay:10.37,2013-05-11 15:29:00,
2013-05-11 10:34:00,63.3,52.6,29.24,West,260,7.0,8.0,68,0.00,SCT,,0.00,WeatherDisplay:10.37,2013-05-11 15:34:00,
2013-05-11 10:39:00,63.5,52.3,29.24,West,260,7.0,7.0,67,0.00,SCT,,0.00,WeatherDisplay:10.37,2013-05-11 15:39:00,
2013-05-11 10:44:00,63.9,53.1,29.24,West,260,7.0,7.0,68,0.00,SCT,,0.00,WeatherDisplay:10.37,2013-05-11 15:44:00,
2013-05-11 10:49:00,64.0,52.4,29.24,West,260,7.0,7.0,66,0.00,CLR,,0.00,WeatherDisplay:10.37,2013-05-11 15:49:00,
2013-05-11 10:54:00,64.0,52.4,29.24,West,260,7.0,7.0,66,0.00,CLR,,0.00,WeatherDisplay:10.37,2013-05-11 15:54:00,
2013-05-11 10:59:00,63.9,51.9,29.24,West,260,7.0,7.0,65,0.00,CLR,,0.00,WeatherDisplay:10.37,2013-05-11 15:59:00,
2013-05-11 11:04:00,63.9,51.9,29.24,West,260,6.0,7.0,65,0.00,SCT,,0.00,WeatherDisplay:10.37,2013-05-11 16:04:00,
2013-05-11 11:09:00,63.9,51.9,29.24,West,260,6.0,6.0,65,0.00,SCT,,0.00,WeatherDisplay:10.37,2013-05-11 16:09:00,
2013-05-11 11:14:00,63.1,51.6,29.24,West,260,6.0,6.0,66,0.00,SCT,,0.00,WeatherDisplay:10.37,2013-05-11 16:14:00,
2013-05-11 11:19:00,62.8,51.2,29.24,West,260,6.0,6.0,66,0.00,SCT,,0.00,WeatherDisplay:10.37,2013-05-11 16:19:00,
2013-05-11 11:24:00,63.3,52.2,29.24,West,260,6.0,6.0,67,0.00,SCT,,0.00,WeatherDisplay:10.37,2013-05-11 16:24:00,
2013-05-11 11:29:00,63.3,52.2,29.24,West,260,6.0,6.0,67,0.00,SCT,,0.00,WeatherDisplay:10.37,2013-05-11 16:29:00,
2013-05-11 11:34:00,63.3,52.2,29.24,West,260,6.0,6.0,67,0.00,SCT,,0.00,WeatherDisplay:10.37,2013-05-11 16:34:00,
2013-05-11 11:39:00,63.3,52.2,29.24,West,260,6.0,6.0,67,0.00,SCT,,0.00,WeatherDisplay:10.37,2013-05-11 16:39:00,
2013-05-11 11:44:00,63.0,51.0,29.24,West,260,6.0,6.0,65,0.00,SCT,,0.00,WeatherDisplay:10.37,2013-05-11 16:44:00,
2013-05-11 11:49:00,63.0,51.0,29.24,West,260,6.0,6.0,65,0.00,BKN,,0.00,WeatherDisplay:10.37,2013-05-11 16:49:00,
2013-05-11 11:54:00,63.0,51.0,29.24,West,260,6.0,6.0,65,0.00,BKN,,0.00,WeatherDisplay:10.37,2013-05-11 16:54:00,
2013-05-11 11:59:00,62.8,51.2,29.24,West,260,6.0,6.0,66,0.00,BKN,,0.00,WeatherDisplay:10.37,2013-05-11 16:59:00,
2013-05-11 12:04:00,63.5,51.5,29.24,West,260,6.0,6.0,65,0.00,SCT,,0.00,WeatherDisplay:10.37,2013-05-11 17:04:00,
2013-05-11 12:09:00,63.5,51.5,29.24,West,260,6.0,6.0,65,0.00,SCT,,0.00,WeatherDisplay:10.37,2013-05-11 17:09:00,
2013-05-11 12:14:00,63.5,51.5,29.24,West,260,6.0,6.0,65,0.00,SCT,,0.00,WeatherDisplay:10.37,2013-05-11 17:14:00,
2013-05-11 12:19:00,64.4,51.5,29.24,West,260,6.0,6.0,63,0.00,SCT,,0.00,WeatherDisplay:10.37,2013-05-11 17:19:00,
2013-05-11 12:24:00,64.0,49.4,29.24,West,260,6.0,6.0,59,0.00,SCT,,0.00,WeatherDisplay:10.37,2013-05-11 17:24:00,
2013-05-11 12:29:00,64.0,49.4,29.24,West,260,6.0,6.0,59,0.00,SCT,,0.00,WeatherDisplay:10.37,2013-05-11 17:29:00,
2013-05-11 12:34:00,64.2,50.0,29.24,West,260,6.0,6.0,60,0.00,SCT,,0.00,WeatherDisplay:10.37,2013-05-11 17:34:00,
2013-05-11 12:39:00,65.1,49.0,29.24,West,260,6.0,6.0,56,0.00,SCT,,0.00,WeatherDisplay:10.37,2013-05-11 17:39:00,
2013-05-11 12:44:00,65.1,49.0,29.24,West,260,6.0,6.0,56,0.00,SCT,,0.00,WeatherDisplay:10.37,2013-05-11 17:44:00,
2013-05-11 12:49:00,65.1,49.0,29.24,West,260,6.0,6.0,56,0.00,SCT,,0.00,WeatherDisplay:10.37,2013-05-11 17:49:00,
2013-05-11 12:54:00,65.1,49.0,29.24,West,260,6.0,6.0,56,0.00,SCT,,0.00,WeatherDisplay:10.37,2013-05-11 17:54:00,
2013-05-11 12:59:00,65.1,49.0,29.24,West,260,6.0,6.0,56,0.00,SCT,,0.00,WeatherDisplay:10.37,2013-05-11 17:59:00,
2013-05-11 13:04:00,65.1,49.0,29.24,West,260,6.0,6.0,56,0.00,SCT,,0.00,WeatherDisplay:10.37,2013-05-11 18:04:00,
2013-05-11 13:09:00,65.1,49.0,29.24,West,260,6.0,6.0,56,0.00,SCT,,0.00,WeatherDisplay:10.37,2013-05-11 18:09:00,
2013-05-11 13:14:00,65.1,49.0,29.24,West,260,6.0,6.0,56,0.00,SCT,,0.00,WeatherDisplay:10.37,2013-05-11 18:14:00,
2013-05-11 13:19:00,65.1,49.0,29.24,West,260,6.0,6.0,56,0.00,SCT,,0.00,WeatherDisplay:10.37,2013-05-11 18:19:00,
2013-05-11 13:24:00,65.1,49.0,29.24,West,260,6.0,6.0,56,0.00,SCT,,0.00,WeatherDisplay:10.37,2013-05-11 18:24:00,
2013-05-11 13:29:00,65.1,49.0,29.24,West,260,6.0,6.0,56,0.00,SCT,,0.00,WeatherDisplay:10.37,2013-05-11 18:29:00,
2013-05-11 13:34:00,65.1,49.0,29.24,West,260,6.0,6.0,56,0.00,SCT,,0.00,WeatherDisplay:10.37,2013-05-11 18:34:00,
2013-05-11 13:39:00,65.1,49.0,29.24,West,260,6.0,6.0,56,0.00,SCT,,0.00,WeatherDisplay:10.37,2013-05-11 18:39:00,
2013-05-11 13:44:00,65.1,49.0,29.26,West,260,6.0,6.0,56,0.00,SCT,,0.00,WeatherDisplay:10.37,2013-05-11 18:44:00,
2013-05-11 13:49:00,65.1,49.0,29.26,West,260,6.0,6.0,56,0.00,CLR,,0.00,WeatherDisplay:10.37,2013-05-11 18:49:00,
2013-05-11 13:54:00,65.1,49.0,29.26,West,260,6.0,6.0,56,0.00,CLR,,0.00,WeatherDisplay:10.37,2013-05-11 18:54:00,
2013-05-11 13:59:00,65.1,49.0,29.26,West,260,6.0,6.0,56,0.00,CLR,,0.00,WeatherDisplay:10.37,2013-05-11 18:59:00,
2013-05-11 14:04:00,65.1,49.0,29.26,West,260,6.0,6.0,56,0.00,CLR,,0.00,WeatherDisplay:10.37,2013-05-11 19:04:00,
2013-05-11 14:09:00,65.1,49.0,29.26,West,260,6.0,6.0,56,0.00,CLR,,0.00,WeatherDisplay:10.37,2013-05-11 19:09:00,
2013-05-11 14:14:00,65.7,39.3,29.26,West,260,6.0,6.0,38,0.00,CLR,,0.00,WeatherDisplay:10.37,2013-05-11 19:14:00,
2013-05-11 14:19:00,65.7,39.3,29.26,West,260,6.0,6.0,38,0.00,CLR,,0.00,WeatherDisplay:10.37,2013-05-11 19:19:00,
2013-05-11 14:24:00,65.7,39.3,29.26,West,260,6.0,6.0,38,0.00,CLR,,0.00,WeatherDisplay:10.37,2013-05-11 19:24:00,
2013-05-11 14:29:00,64.9,38.0,29.26,West,260,6.0,6.0,37,0.00,CLR,,0.00,WeatherDisplay:10.37,2013-05-11 19:29:00,
2013-05-11 14:34:00,64.9,38.0,29.26,West,260,6.0,6.0,37,0.00,CLR,,0.00,WeatherDisplay:10.37,2013-05-11 19:34:00,
2013-05-11 14:39:00,64.9,38.0,29.26,West,266,6.0,6.0,37,0.00,CLR,,0.00,WeatherDisplay:10.37,2013-05-11 19:39:00,
2013-05-11 14:44:00,64.2,37.4,29.26,NW,305,7.0,7.0,37,0.00,CLR,,0.00,WeatherDisplay:10.37,2013-05-11 19:44:00,
2013-05-11 14:49:00,64.2,37.4,29.26,NW,315,7.0,7.0,37,0.00,CLR,,0.00,WeatherDisplay:10.37,2013-05-11 19:49:00,
2013-05-11 14:54:00,64.2,37.4,29.26,NW,315,7.0,7.0,37,0.00,CLR,,0.00,WeatherDisplay:10.37,2013-05-11 19:54:00,
2013-05-11 14:59:00,64.2,37.4,29.26,NNW,328,9.0,9.0,37,0.00,CLR,,0.00,WeatherDisplay:10.37,2013-05-11 19:59:00,
2013-05-11 15:04:00,64.4,37.5,29.26,NW,325,10.0,10.0,37,0.00,CLR,,0.00,WeatherDisplay:10.37,2013-05-11 20:04:00,
2013-05-11 15:09:00,64.4,38.2,29.26,NW,317,10.0,11.0,38,0.00,CLR,,0.00,WeatherDisplay:10.37,2013-05-11 20:09:00,
2013-05-11 15:14:00,64.2,36.7,29.26,NW,309,13.0,13.0,36,0.00,CLR,,0.00,WeatherDisplay:10.37,2013-05-11 20:14:00,
2013-05-11 15:19:00,64.6,37.0,29.26,NW,311,14.0,14.0,36,0.00,CLR,,0.00,WeatherDisplay:10.37,2013-05-11 20:19:00,
2013-05-11 15:24:00,64.8,37.2,29.29,NW,312,14.0,14.0,36,0.00,CLR,,0.00,WeatherDisplay:10.37,2013-05-11 20:24:00,
2013-05-11 15:29:00,64.8,38.5,29.29,NW,319,15.0,15.0,38,0.00,CLR,,0.00,WeatherDisplay:10.37,2013-05-11 20:29:00,
2013-05-11 15:34:00,64.8,38.5,29.29,NW,325,15.0,15.0,38,0.00,CLR,,0.00,WeatherDisplay:10.37,2013-05-11 20:34:00,
2013-05-11 15:39:00,64.8,38.5,29.29,NW,324,16.0,16.0,38,0.00,CLR,,0.00,WeatherDisplay:10.37,2013-05-11 20:39:00,
2013-05-11 15:44:00,63.5,35.3,29.29,NW,322,16.0,16.0,35,0.00,CLR,,0.00,WeatherDisplay:10.37,2013-05-11 20:44:00,
2013-05-11 15:49:00,63.5,35.3,29.29,NW,325,16.0,16.0,35,0.00,CLR,,0.00,WeatherDisplay:10.37,2013-05-11 20:49:00,
2013-05-11 15:54:00,64.2,36.7,29.29,NNW,329,16.0,16.0,36,0.00,CLR,,0.00,WeatherDisplay:10.37,2013-05-11 20:54:00,
2013-05-11 15:59:00,65.3,37.6,29.29,NNW,329,16.0,16.0,36,0.00,CLR,,0.00,WeatherDisplay:10.37,2013-05-11 20:59:00,
2013-05-11 16:04:00,65.3,37.6,29.29,NW,318,16.0,16.0,36,0.00,CLR,,0.00,WeatherDisplay:10.37,2013-05-11 21:04:00,
2013-05-11 16:09:00,64.4,36.1,29.29,NW,321,16.0,17.0,35,0.00,CLR,,0.00,WeatherDisplay:10.37,2013-05-11 21:09:00,
2013-05-11 16:14:00,64.4,36.1,29.29,NNW,329,17.0,17.0,35,0.00,CLR,,0.00,WeatherDisplay:10.37,2013-05-11 21:14:00,
2013-05-11 16:19:00,64.4,36.1,29.29,NW,325,17.0,18.0,35,0.00,CLR,,0.00,WeatherDisplay:10.37,2013-05-11 21:19:00,
2013-05-11 16:24:00,65.3,37.6,29.29,NW,321,17.0,18.0,36,0.00,CLR,,0.00,WeatherDisplay:10.37,2013-05-11 21:24:00,
2013-05-11 16:29:00,63.3,35.2,29.29,NW,321,17.0,18.0,35,0.00,CLR,,0.00,WeatherDisplay:10.37,2013-05-11 21:29:00,
2013-05-11 16:34:00,63.7,35.5,29.29,NNW,330,18.0,18.0,35,0.00,CLR,,0.00,WeatherDisplay:10.37,2013-05-11 21:34:00,
2013-05-11 16:39:00,63.7,36.2,29.29,NNW,328,17.0,18.0,36,0.00,CLR,,0.00,WeatherDisplay:10.37,2013-05-11 21:39:00,
2013-05-11 16:44:00,63.7,36.2,29.29,NNW,329,18.0,18.0,36,0.00,CLR,,0.00,WeatherDisplay:10.37,2013-05-11 21:44:00,
2013-05-11 16:49:00,63.7,36.2,29.29,NNW,330,18.0,18.0,36,0.00,CLR,,0.00,WeatherDisplay:10.37,2013-05-11 21:49:00,
2013-05-11 16:54:00,63.7,36.2,29.29,NNW,330,18.0,18.0,36,0.00,CLR,,0.00,WeatherDisplay:10.37,2013-05-11 21:54:00,
2013-05-11 16:59:00,62.6,33.8,29.29,NNW,330,18.0,19.0,34,0.00,CLR,,0.00,WeatherDisplay:10.37,2013-05-11 21:59:00,
2013-05-11 17:04:00,62.6,33.8,29.29,NW,324,20.0,20.0,34,0.00,CLR,,0.00,WeatherDisplay:10.37,2013-05-11 22:04:00,
2013-05-11 17:09:00,62.6,33.8,29.29,NW,326,20.0,20.0,34,0.00,CLR,,0.00,WeatherDisplay:10.37,2013-05-11 22:09:00,
2013-05-11 17:14:00,62.6,33.8,29.29,NW,323,20.0,20.0,34,0.00,CLR,,0.00,WeatherDisplay:10.37,2013-05-11 22:14:00,
2013-05-11 17:19:00,62.6,33.8,29.32,NW,318,20.0,20.0,34,0.00,CLR,,0.00,WeatherDisplay:10.37,2013-05-11 22:19:00,
2013-05-11 17:24:00,62.6,33.8,29.32,NW,320,20.0,20.0,34,0.00,CLR,,0.00,WeatherDisplay:10.37,2013-05-11 22:24:00,
2013-05-11 17:29:00,62.6,33.8,29.32,NNW,327,20.0,21.0,34,0.00,CLR,,0.00,WeatherDisplay:10.37,2013-05-11 22:29:00,
2013-05-11 17:34:00,62.6,33.8,29.32,NW,323,20.0,20.0,34,0.00,CLR,,0.00,WeatherDisplay:10.37,2013-05-11 22:34:00,
2013-05-11 17:39:00,62.6,33.8,29.32,NW,325,20.0,20.0,34,0.00,CLR,,0.00,WeatherDisplay:10.37,2013-05-11 22:39:00,
2013-05-11 17:44:00,62.6,33.8,29.32,NNW,331,20.0,20.0,34,0.00,CLR,,0.00,WeatherDisplay:10.37,2013-05-11 22:44:00,
2013-05-11 17:49:00,62.6,33.8,29.32,NNW,340,20.0,20.0,34,0.00,CLR,,0.00,WeatherDisplay:10.37,2013-05-11 22:49:00,
2013-05-11 17:54:00,62.6,33.8,29.32,NNW,340,20.0,20.0,34,0.00,CLR,,0.00,WeatherDisplay:10.37,2013-05-11 22:54:00,
2013-05-11 17:59:00,60.8,33.7,29.32,NNW,336,20.0,20.0,36,0.00,CLR,,0.00,WeatherDisplay:10.37,2013-05-11 22:59:00,
2013-05-11 18:04:00,60.8,33.7,29.32,NNW,330,20.0,20.0,36,0.00,SCT,,0.00,WeatherDisplay:10.37,2013-05-11 23:04:00,
2013-05-11 18:09:00,60.8,33.7,29.32,NNW,330,20.0,20.0,36,0.00,SCT,,0.00,WeatherDisplay:10.37,2013-05-11 23:09:00,
2013-05-11 18:14:00,59.2,31.5,29.32,NW,325,20.0,20.0,35,0.00,SCT,,0.00,WeatherDisplay:10.37,2013-05-11 23:14:00,
2013-05-11 18:19:00,59.2,32.2,29.32,NNW,328,20.0,20.0,36,0.00,SCT,,0.00,WeatherDisplay:10.37,2013-05-11 23:19:00,
2013-05-11 18:24:00,59.4,33.1,29.32,NNW,332,20.0,20.0,37,0.00,SCT,,0.00,WeatherDisplay:10.37,2013-05-11 23:24:00,
2013-05-11 18:29:00,59.0,32.1,29.32,NNW,331,20.0,20.0,36,0.00,SCT,,0.00,WeatherDisplay:10.37,2013-05-11 23:29:00,
2013-05-11 18:34:00,60.1,32.3,29.32,NNW,327,18.0,20.0,35,0.00,CLR,,0.00,WeatherDisplay:10.37,2013-05-11 23:34:00,
2013-05-11 18:39:00,59.9,32.9,29.32,NNW,327,18.0,19.0,36,0.00,CLR,,0.00,WeatherDisplay:10.37,2013-05-11 23:39:00,
2013-05-11 18:44:00,60.8,33.0,29.32,NNW,334,18.0,19.0,35,0.00,CLR,,0.00,WeatherDisplay:10.37,2013-05-11 23:44:00,
2013-05-11 18:49:00,59.9,32.2,29.32,NNW,329,18.0,19.0,35,0.00,SCT,,0.00,WeatherDisplay:10.37,2013-05-11 23:49:00,
2013-05-11 18:54:00,59.9,32.2,29.32,NNW,327,18.0,18.0,35,0.00,SCT,,0.00,WeatherDisplay:10.37,2013-05-11 23:54:00,
2013-05-11 18:59:00,59.0,33.4,29.32,NNW,330,18.0,19.0,38,0.00,SCT,,0.00,WeatherDisplay:10.37,2013-05-11 23:59:00,
2013-05-11 19:04:00,57.6,32.1,29.32,NNW,332,18.0,19.0,38,0.00,SCT,,0.00,WeatherDisplay:10.37,2013-05-12 00:04:00,
2013-05-11 19:09:00,57.6,32.1,29.32,NNW,333,18.0,19.0,38,0.00,SCT,,0.00,WeatherDisplay:10.37,2013-05-12 00:09:00,
2013-05-11 19:14:00,57.2,31.8,29.35,NNW,331,20.0,20.0,38,0.00,SCT,,0.00,WeatherDisplay:10.37,2013-05-12 00:14:00,
2013-05-11 19:19:00,57.0,32.3,29.35,NNW,332,20.0,20.0,39,0.00,SCT,,0.00,WeatherDisplay:10.37,2013-05-12 00:19:00,
2013-05-11 19:24:00,57.0,32.9,29.35,NNW,334,20.0,20.0,40,0.00,SCT,,0.00,WeatherDisplay:10.37,2013-05-12 00:24:00,
2013-05-11 19:29:00,56.8,32.1,29.35,NNW,334,18.0,20.0,39,0.00,SCT,,0.00,WeatherDisplay:10.37,2013-05-12 00:29:00,
2013-05-11 19:34:00,56.5,32.4,29.35,NNW,334,18.0,19.0,40,0.00,SCT,,0.00,WeatherDisplay:10.37,2013-05-12 00:34:00,
2013-05-11 19:39:00,56.3,32.9,29.35,NNW,330,18.0,19.0,41,0.00,SCT,,0.00,WeatherDisplay:10.37,2013-05-12 00:39:00,
2013-05-11 19:44:00,56.1,32.1,29.35,NNW,335,17.0,18.0,40,0.00,SCT,,0.00,WeatherDisplay:10.37,2013-05-12 00:44:00,
2013-05-11 19:49:00,55.4,31.5,29.35,NNW,335,17.0,17.0,40,0.00,SCT,,0.00,WeatherDisplay:10.37,2013-05-12 00:49:00,
2013-05-11 19:54:00,55.4,30.8,29.35,NNW,333,16.0,17.0,39,0.00,SCT,,0.00,WeatherDisplay:10.37,2013-05-12 00:54:00,
2013-05-11 19:59:00,55.0,31.7,29.35,NNW,332,16.0,16.0,41,0.00,SCT,,0.00,WeatherDisplay:10.37,2013-05-12 00:59:00,
2013-05-11 20:04:00,54.9,31.6,29.35,NNW,333,16.0,16.0,41,0.00,CLR,,0.00,WeatherDisplay:10.37,2013-05-12 01:04:00,
2013-05-11 20:09:00,54.9,31.6,29.35,NNW,335,15.0,16.0,41,0.00,CLR,,0.00,WeatherDisplay:10.37,2013-05-12 01:09:00,
2013-05-11 20:14:00,54.5,31.3,29.35,NNW,333,15.0,15.0,41,0.00,CLR,,0.00,WeatherDisplay:10.37,2013-05-12 01:14:00,
2013-05-11 20:19:00,54.3,31.7,29.35,NNW,330,14.0,15.0,42,0.00,CLR,,0.00,WeatherDisplay:10.37,2013-05-12 01:19:00,
2013-05-11 20:24:00,54.1,31.5,29.35,NNW,328,14.0,14.0,42,0.00,CLR,,0.00,WeatherDisplay:10.37,2013-05-12 01:24:00,
2013-05-11 20:29:00,54.0,32.0,29.35,NNW,327,13.0,13.0,43,0.00,CLR,,0.00,WeatherDisplay:10.37,2013-05-12 01:29:00,
2013-05-11 20:34:00,53.8,31.2,29.35,NNW,330,12.0,13.0,42,0.00,CLR,,0.00,WeatherDisplay:10.37,2013-05-12 01:34:00,
2013-05-11 20:39:00,53.8,31.2,29.35,NNW,331,12.0,12.0,42,0.00,CLR,,0.00,WeatherDisplay:10.37,2013-05-12 01:39:00,
2013-05-11 20:44:00,53.6,31.0,29.35,NNW,328,12.0,13.0,42,0.00,CLR,,0.00,WeatherDisplay:10.37,2013-05-12 01:44:00,
2013-05-11 20:49:00,53.4,31.5,29.38,NW,326,12.0,12.0,43,0.00,CLR,,0.00,WeatherDisplay:10.37,2013-05-12 01:49:00,
2013-05-11 20:54:00,53.2,31.3,29.38,NNW,328,12.0,12.0,43,0.00,CLR,,0.00,WeatherDisplay:10.37,2013-05-12 01:54:00,
2013-05-11 20:59:00,53.1,31.7,29.38,NW,326,12.0,12.0,44,0.00,CLR,,0.00,WeatherDisplay:10.37,2013-05-12 01:59:00,
2013-05-11 21:04:00,53.1,31.7,29.38,NW,322,10.0,12.0,44,0.00,CLR,,0.00,WeatherDisplay:10.37,2013-05-12 02:04:00,
2013-05-11 21:09:00,53.1,31.7,29.38,NW,324,10.0,10.0,44,0.00,CLR,,0.00,WeatherDisplay:10.37,2013-05-12 02:09:00,
2013-05-11 21:14:00,52.7,31.9,29.38,NW,326,9.0,10.0,45,0.00,CLR,,0.00,WeatherDisplay:10.37,2013-05-12 02:14:00,
2013-05-11 21:19:00,52.5,32.3,29.38,NNW,328,9.0,10.0,46,0.00,CLR,,0.00,WeatherDisplay:10.37,2013-05-12 02:19:00,
2013-05-11 21:24:00,52.3,32.2,29.38,NW,326,9.0,9.0,46,0.00,CLR,,0.00,WeatherDisplay:10.37,2013-05-12 02:24:00,
2013-05-11 21:29:00,52.0,31.8,29.38,NW,320,8.0,9.0,46,0.00,CLR,,0.00,WeatherDisplay:10.37,2013-05-12 02:29:00,
2013-05-11 21:34:00,51.8,32.2,29.38,NW,325,8.0,8.0,47,0.00,CLR,,0.00,WeatherDisplay:10.37,2013-05-12 02:34:00,
2013-05-11 21:39:00,51.8,32.2,29.38,NW,326,8.0,8.0,47,0.00,CLR,,0.00,WeatherDisplay:10.37,2013-05-12 02:39:00,
2013-05-11 21:44:00,51.6,32.6,29.38,NW,318,7.0,8.0,48,0.00,CLR,,0.00,WeatherDisplay:10.37,2013-05-12 02:44:00,
2013-05-11 21:49:00,51.8,31.7,29.38,NW,314,7.0,7.0,46,0.00,CLR,,0.00,WeatherDisplay:10.37,2013-05-12 02:49:00,
2013-05-11 21:54:00,51.6,32.0,29.38,NW,319,7.0,7.0,47,0.00,CLR,,0.00,WeatherDisplay:10.37,2013-05-12 02:54:00,
2013-05-11 21:59:00,51.6,31.5,29.38,NW,319,7.0,7.0,46,0.00,CLR,,0.00,WeatherDisplay:10.37,2013-05-12 02:59:00,
2013-05-11 22:04:00,51.3,31.7,29.38,NW,315,7.0,7.0,47,0.00,CLR,,0.00,WeatherDisplay:10.37,2013-05-12 03:04:00,
2013-05-11 22:09:00,51.3,32.2,29.38,NW,316,7.0,7.0,48,0.00,CLR,,0.00,WeatherDisplay:10.37,2013-05-12 03:09:00,
2013-05-11 22:14:00,51.1,32.1,29.38,NW,311,7.0,7.0,48,0.00,CLR,,0.00,WeatherDisplay:10.37,2013-05-12 03:14:00,
2013-05-11 22:19:00,51.1,32.1,29.38,NW,305,6.0,7.0,48,0.00,CLR,,0.00,WeatherDisplay:10.37,2013-05-12 03:19:00,
2013-05-11 22:24:00,50.7,31.7,29.38,NW,306,6.0,6.0,48,0.00,CLR,,0.00,WeatherDisplay:10.37,2013-05-12 03:24:00,
2013-05-11 22:29:00,50.5,31.6,29.38,NW,315,6.0,6.0,48,0.00,CLR,,0.00,WeatherDisplay:10.37,2013-05-12 03:29:00,
2013-05-11 22:34:00,50.4,31.9,29.38,NW,309,5.0,6.0,49,0.00,CLR,,0.00,WeatherDisplay:10.37,2013-05-12 03:34:00,
2013-05-11 22:39:00,50.4,31.9,29.38,WNW,300,5.0,5.0,49,0.00,CLR,,0.00,WeatherDisplay:10.37,2013-05-12 03:39:00,
2013-05-11 22:44:00,50.2,31.7,29.38,WNW,290,5.0,5.0,49,0.00,CLR,,0.00,WeatherDisplay:10.37,2013-05-12 03:44:00,
2013-05-11 22:49:00,49.8,32.4,29.38,NW,307,3.0,5.0,51,0.00,CLR,,0.00,WeatherDisplay:10.37,2013-05-12 03:49:00,
2013-05-11 22:54:00,49.8,32.4,29.38,NW,313,3.0,3.0,51,0.00,CLR,,0.00,WeatherDisplay:10.37,2013-05-12 03:54:00,
2013-05-11 22:59:00,49.6,32.2,29.38,NW,305,3.0,3.0,51,0.00,CLR,,0.00,WeatherDisplay:10.37,2013-05-12 03:59:00,
2013-05-11 23:04:00,49.5,32.6,29.38,WNW,297,2.0,3.0,52,0.00,CLR,,0.00,WeatherDisplay:10.37,2013-05-12 04:04:00,
2013-05-11 23:09:00,49.5,32.6,29.38,WNW,299,2.0,3.0,52,0.00,CLR,,0.00,WeatherDisplay:10.37,2013-05-12 04:09:00,
2013-05-11 23:14:00,49.1,32.7,29.38,NW,307,2.0,3.0,53,0.00,CLR,,0.00,WeatherDisplay:10.37,2013-05-12 04:14:00,
2013-05-11 23:19:00,48.9,33.0,29.38,NW,304,3.0,3.0,54,0.00,CLR,,0.00,WeatherDisplay:10.37,2013-05-12 04:19:00,
2013-05-11 23:24:00,48.7,33.3,29.38,WNW,300,3.0,3.0,55,0.00,CLR,,0.00,WeatherDisplay:10.37,2013-05-12 04:24:00,
2013-05-11 23:29:00,48.6,33.1,29.38,WNW,299,3.0,3.0,55,0.00,CLR,,0.00,WeatherDisplay:10.37,2013-05-12 04:29:00,
2013-05-11 23:34:00,48.6,33.1,29.38,NW,304,3.0,3.0,55,0.00,CLR,,0.00,WeatherDisplay:10.37,2013-05-12 04:34:00,
2013-05-11 23:39:00,48.6,33.1,29.38,WNW,303,3.0,4.0,55,0.00,CLR,,0.00,WeatherDisplay:10.37,2013-05-12 04:39:00,
2013-05-11 23:44:00,48.6,33.1,29.38,WNW,298,3.0,4.0,55,0.00,CLR,,0.00,WeatherDisplay:10.37,2013-05-12 04:44:00,
2013-05-11 23:49:00,48.6,33.1,29.38,WNW,295,3.0,4.0,55,0.00,CLR,,0.00,WeatherDisplay:10.37,2013-05-12 04:49:00,
2013-05-11 23:54:00,48.6,33.1,29.38,WNW,292,3.0,4.0,55,0.00,CLR,,0.00,WeatherDisplay:10.37,2013-05-12 04:54:00,
2013-05-11 23:59:00,48.6,33.1,29.41,WNW,288,3.0,3.0,55,0.00,CLR,,0.00,WeatherDisplay:10.37,2013-05-12 04:59:00,